KTIW/TIW METAR and TAF weather

Enter ICAO airport designator
Station Type Date Time Source
KTIW METAR 2019/10/15 03:53 UTC NOAA

KTIW 150353Z AUTO 03004KT 10SM CLR 11/06 A3006 RMK AO2 SLP180 T01060061 $


Station Type Date Time Source
KTIW Decoded METAR 2019/10/15 03:53 UTC NOAA

Tacoma, Tacoma Narrows Airport, WA, United States (KTIW) 47-16-03N 122-34-34W 96M
Oct 14, 2019 - 11:53 PM EDT / 2019.10.15 0353 UTC
Wind: from the NNE (030 degrees) at 5 MPH (4 KT):0
Visibility: 10 mile(s):0
Sky conditions: clear
Temperature: 51.1 F (10.6 C)
Dew Point: 43.0 F (6.1 C)
Relative Humidity: 73%
Pressure (altimeter): 30.06 in. Hg (1017 hPa)
ob: KTIW 150353Z AUTO 03004KT 10SM CLR 11/06 A3006 RMK AO2 SLP180 T01060061
cycle: 4

Station Type Date Time Source
KTIW TAF UTC NOAA

Error!

Example: see airport list